Galleon — 3ECQ6 — position and weather

sailwx.info

Track history (hours):
 
Tides and Currents Weather Stations Pressure Air Temp Water Temp Dewpoint Dewpoint Depression Visibility Wind Speed Wind Dir Waves Ship Positions

Galleon

Last reported at 2018-Aug-16 20:00 UTC. Time now 2018-Aug-16 20:18 UTC.
Position N 38°03' W 122°08'.

Length 170 m; draft 6.5 m.

Type: Cargo ship. MMSI: 371605000.

Date/timePositionNaut miles runAvg speedWind from/ knotsBaromVisibWave heightAir tempDewpointWater temp
2018-Aug-16 20:00N 38°03' W 122°08'0 0.0
2018-Aug-16 19:06N 38°03' W 122°08'0 0.0
2018-Aug-16 18:36N 38°03' W 122°08'0 0.0
2018-Aug-16 18:30N 38°03' W 122°08'0 0.0
2018-Aug-16 17:54N 38°03' W 122°08'0 0.0
2018-Aug-16 17:24N 38°03' W 122°08'0 0.0
2018-Aug-16 16:54N 38°03' W 122°08'0 0.0
2018-Aug-16 16:30N 38°03' W 122°08'0 0.0
2018-Aug-16 15:36N 38°03' W 122°08'0 0.0
2018-Aug-16 15:30N 38°03' W 122°08'7 1.7
2018-Aug-16 11:32N 38°04' W 122°16'013.2
2018-Aug-16 11:30N 38°03' W 122°17'712.9
2018-Aug-16 10:58N 38°00' W 122°25'612.5
2018-Aug-16 10:29N 37°54' W 122°27'511.5
2018-Aug-16 10:00N 37°49' W 122°24'3 3.1
2018-Aug-16 08:55N 37°47' W 122°21'0 0.0
2018-Aug-16 08:28N 37°47' W 122°21'0 0.0
2018-Aug-16 07:58N 37°47' W 122°21'0 0.0
2018-Aug-16 07:28N 37°47' W 122°21'0 0.1
2018-Aug-16 06:58N 37°47' W 122°21'0 0.0
2018-Aug-16 06:28N 37°47' W 122°21'0 0.1
2018-Aug-16 05:40N 37°47' W 122°21'0 0.1
2018-Aug-16 05:28N 37°47' W 122°21'0 0.1
2018-Aug-16 04:43N 37°47' W 122°21'0 0.0
2018-Aug-16 04:25N 37°47' W 122°21'0 0.0
2018-Aug-16 03:25N 37°47' W 122°21'0 0.0
2018-Aug-16 02:58N 37°47' W 122°21'0 0.0
2018-Aug-16 02:25N 37°47' W 122°21'0 0.0
2018-Aug-16 01:58N 37°47' W 122°21'0 0.0
2018-Aug-16 01:28N 37°47' W 122°21'0 0.1
2018-Aug-16 00:52N 37°47' W 122°21'0 0.4
2018-Aug-16 00:30N 37°47' W 122°21'4 8.6
2018-Aug-16 00:00N 37°49' W 122°26'713.3
2018-Aug-15 23:30N 37°47' W 122°34'612.0
2018-Aug-15 23:00N 37°46' W 122°41'4 9.0
2018-Aug-15 22:30N 37°47' W 122°47'4 8.1
2018-Aug-15 22:00N 37°48' W 122°52'4 7.3
2018-Aug-15 21:29N 37°50' W 122°56'4 8.2
2018-Aug-15 21:00N 37°52' W 123°00'4 8.2
2018-Aug-15 20:30N 37°54' W 123°05'4 8.4
2018-Aug-15 20:00N 37°57' W 123°09'4 8.8
2018-Aug-15 19:30N 37°59' W 123°13'510.3
2018-Aug-15 19:00N 38°03' W 123°18'510.2
2018-Aug-15 18:30N 38°07' W 123°22'4 9.0
2018-Aug-15 18:01N 38°08' W 123°27'611.1
2018-Aug-15 17:30N 38°08' W 123°35'612.3
2018-Aug-15 17:01N 38°08' W 123°42'612.7
2018-Aug-15 16:31N 38°08' W 123°50'612.5
2018-Aug-15 16:00N 38°08' W 123°58'612.2
2018-Aug-15 15:31N 38°08' W 124°06'810.7
2018-Aug-15 14:45N 38°08' W 124°16'412.7
2018-Aug-15 14:26N 38°08' W 124°21'612.6
2018-Aug-15 13:59N 38°08' W 124°29'612.2
2018-Aug-15 13:30N 38°08' W 124°36'612.4
2018-Aug-15 13:01N 38°08' W 124°44'712.9
2018-Aug-15 12:29N 38°08' W 124°52'612.9
2018-Aug-15 12:01N 38°08' W 125°00'1312.9
2018-Aug-15 11:00N 38°08' W 125°17'612.7
2018-Aug-15 10:31N 38°08' W 125°25'812.7
2018-Aug-15 09:54N 38°08' W 125°35'813.0
2018-Aug-15 09:19N 38°08' W 125°44'1912.8
2018-Aug-15 07:52N 38°08' W 126°08'612.0
2018-Aug-15 07:23N 38°08' W 126°15'512.3
2018-Aug-15 06:57N 38°08' W 126°22'612.5
2018-Aug-15 06:28N 38°08' W 126°30'  
Track history (hours):
 
Tides and Currents Weather Stations Pressure Air Temp Water Temp Dewpoint Dewpoint Depression Visibility Wind Speed Wind Dir Waves Ship Positions

Galleon

Last reported at 2018-Aug-16 20:00 UTC. Time now 2018-Aug-16 20:18 UTC.
Position N 38°03' W 122°08'.

Length 170 m; draft 6.5 m.

Type: Cargo ship. MMSI: 371605000.

Date/timePositionNaut miles runAvg speedWind from/ knotsBaromVisibWave heightAir tempDewpointWater temp
2018-Aug-16 20:00N 38°03' W 122°08'0 0.0
2018-Aug-16 19:06N 38°03' W 122°08'0 0.0
2018-Aug-16 18:36N 38°03' W 122°08'0 0.0
2018-Aug-16 18:30N 38°03' W 122°08'0 0.0
2018-Aug-16 17:54N 38°03' W 122°08'0 0.0
2018-Aug-16 17:24N 38°03' W 122°08'0 0.0
2018-Aug-16 16:54N 38°03' W 122°08'0 0.0
2018-Aug-16 16:30N 38°03' W 122°08'0 0.0
2018-Aug-16 15:36N 38°03' W 122°08'0 0.0
2018-Aug-16 15:30N 38°03' W 122°08'7 1.7
2018-Aug-16 11:32N 38°04' W 122°16'013.2
2018-Aug-16 11:30N 38°03' W 122°17'712.9
2018-Aug-16 10:58N 38°00' W 122°25'612.5
2018-Aug-16 10:29N 37°54' W 122°27'511.5
2018-Aug-16 10:00N 37°49' W 122°24'3 3.1
2018-Aug-16 08:55N 37°47' W 122°21'0 0.0
2018-Aug-16 08:28N 37°47' W 122°21'0 0.0
2018-Aug-16 07:58N 37°47' W 122°21'0 0.0
2018-Aug-16 07:28N 37°47' W 122°21'0 0.1
2018-Aug-16 06:58N 37°47' W 122°21'0 0.0
2018-Aug-16 06:28N 37°47' W 122°21'0 0.1
2018-Aug-16 05:40N 37°47' W 122°21'0 0.1
2018-Aug-16 05:28N 37°47' W 122°21'0 0.1
2018-Aug-16 04:43N 37°47' W 122°21'0 0.0
2018-Aug-16 04:25N 37°47' W 122°21'0 0.0
2018-Aug-16 03:25N 37°47' W 122°21'0 0.0
2018-Aug-16 02:58N 37°47' W 122°21'0 0.0
2018-Aug-16 02:25N 37°47' W 122°21'0 0.0
2018-Aug-16 01:58N 37°47' W 122°21'0 0.0
2018-Aug-16 01:28N 37°47' W 122°21'0 0.1
2018-Aug-16 00:52N 37°47' W 122°21'0 0.4
2018-Aug-16 00:30N 37°47' W 122°21'4 8.6
2018-Aug-16 00:00N 37°49' W 122°26'713.3
2018-Aug-15 23:30N 37°47' W 122°34'612.0
2018-Aug-15 23:00N 37°46' W 122°41'4 9.0
2018-Aug-15 22:30N 37°47' W 122°47'4 8.1
2018-Aug-15 22:00N 37°48' W 122°52'4 7.3
2018-Aug-15 21:29N 37°50' W 122°56'4 8.2
2018-Aug-15 21:00N 37°52' W 123°00'4 8.2
2018-Aug-15 20:30N 37°54' W 123°05'4 8.4
2018-Aug-15 20:00N 37°57' W 123°09'4 8.8
2018-Aug-15 19:30N 37°59' W 123°13'510.3
2018-Aug-15 19:00N 38°03' W 123°18'510.2
2018-Aug-15 18:30N 38°07' W 123°22'4 9.0
2018-Aug-15 18:01N 38°08' W 123°27'611.1
2018-Aug-15 17:30N 38°08' W 123°35'612.3
2018-Aug-15 17:01N 38°08' W 123°42'612.7
2018-Aug-15 16:31N 38°08' W 123°50'612.5
2018-Aug-15 16:00N 38°08' W 123°58'612.2
2018-Aug-15 15:31N 38°08' W 124°06'810.7
2018-Aug-15 14:45N 38°08' W 124°16'412.7
2018-Aug-15 14:26N 38°08' W 124°21'612.6
2018-Aug-15 13:59N 38°08' W 124°29'612.2
2018-Aug-15 13:30N 38°08' W 124°36'612.4
2018-Aug-15 13:01N 38°08' W 124°44'712.9
2018-Aug-15 12:29N 38°08' W 124°52'612.9
2018-Aug-15 12:01N 38°08' W 125°00'1312.9
2018-Aug-15 11:00N 38°08' W 125°17'612.7
2018-Aug-15 10:31N 38°08' W 125°25'812.7
2018-Aug-15 09:54N 38°08' W 125°35'813.0
2018-Aug-15 09:19N 38°08' W 125°44'1912.8
2018-Aug-15 07:52N 38°08' W 126°08'612.0
2018-Aug-15 07:23N 38°08' W 126°15'512.3
2018-Aug-15 06:57N 38°08' W 126°22'612.5
2018-Aug-15 06:28N 38°08' W 126°30'  

Dump ship's entire track history